Terminal Aerodrome Forecast
Issued by NWS Pittsburgh, PA

Current Version | Previous Version | Graphics & Text | Print | Product List | Glossary On
Versions: 1 2 3 4 5 6 7 8 9 10 11 12 13 14 15 16 17 18 19 20 21 22 23 24 25 26 27 28 29 30 31
000
FTUS41 KPBZ 260500 RRA
TAFPIT
TAF
KPIT 260541Z 2606/2712 04008KT 1/2SM SN OVC006
     FM261000 07007KT 1 1/2SM -SN BR OVC007
     FM262100 36010KT 3SM -SHSN OVC010
     FM270600 32008KT 5SM -SHSN BKN020=

USA.gov is the U.S. government's official web portal to all federal, state and local government web resources and services.